createdAt,value
2024-04-25T00:01:49.909Z,7.18
2024-04-25T00:04:17.524Z,7.12
2024-04-25T00:06:44.981Z,7.08
2024-04-25T00:09:12.499Z,7.06
2024-04-25T00:11:40.192Z,7.05
2024-04-25T00:14:08.123Z,7.08
2024-04-25T00:16:35.803Z,7.06
2024-04-25T00:19:03.346Z,7.04
2024-04-25T00:21:30.843Z,7.00
2024-04-25T00:23:58.372Z,6.98
2024-04-25T00:26:25.858Z,6.96
2024-04-25T00:28:53.361Z,6.95
2024-04-25T00:31:21.765Z,7.00
2024-04-25T00:33:49.358Z,7.01
2024-04-25T00:36:16.875Z,7.01
2024-04-25T00:38:44.442Z,7.00
2024-04-25T00:41:12.079Z,6.97
2024-04-25T00:43:39.580Z,7.01
2024-04-25T00:46:07.221Z,7.01
2024-04-25T00:48:34.925Z,7.04
2024-04-25T00:51:06.957Z,7.08
2024-04-25T00:53:35.264Z,7.08
2024-04-25T00:56:04.903Z,7.17
2024-04-25T00:58:34.399Z,7.22
2024-04-25T01:01:06.350Z,7.22
2024-04-25T01:03:35.091Z,7.23
2024-04-25T01:06:08.602Z,7.25
2024-04-25T01:08:36.577Z,7.22
2024-04-25T01:11:05.116Z,7.26
2024-04-25T01:13:32.675Z,7.31
2024-04-25T01:16:02.203Z,7.32
2024-04-25T01:18:31.096Z,7.37
2024-04-25T01:20:58.795Z,7.43
2024-04-25T01:23:33.460Z,7.49
2024-04-25T01:26:01.435Z,7.56
2024-04-25T01:28:30.112Z,7.61
2024-04-25T01:30:58.611Z,7.61
2024-04-25T01:33:30.318Z,7.61
2024-04-25T01:35:57.798Z,7.62
2024-04-25T01:38:25.391Z,7.65
2024-04-25T01:40:53.283Z,7.68
2024-04-25T01:43:20.999Z,7.75
2024-04-25T01:45:48.425Z,7.77
2024-04-25T01:48:16.089Z,7.78
2024-04-25T01:50:43.790Z,7.81
2024-04-25T01:53:11.347Z,7.86
2024-04-25T01:55:39.143Z,7.71
2024-04-25T01:58:06.638Z,7.67
2024-04-25T02:00:34.228Z,7.69
2024-04-25T02:03:01.877Z,7.59
2024-04-25T02:05:29.474Z,7.58
2024-04-25T02:07:56.895Z,7.46
2024-04-25T02:10:24.388Z,7.43
2024-04-25T02:12:51.805Z,7.41
2024-04-25T02:15:19.688Z,7.36
2024-04-25T02:17:47.238Z,7.46
2024-04-25T02:20:33.313Z,7.49
2024-04-25T02:23:19.692Z,7.60
2024-04-25T02:25:47.232Z,7.63
2024-04-25T02:28:14.709Z,7.58
2024-04-25T02:30:42.127Z,7.58
2024-04-25T02:33:09.731Z,7.59
2024-04-25T02:35:37.396Z,7.52
2024-04-25T02:38:05.122Z,7.54
2024-04-25T02:40:32.637Z,7.59
2024-04-25T02:43:00.166Z,7.62
2024-04-25T02:45:27.635Z,7.60
2024-04-25T02:47:55.388Z,7.61
2024-04-25T02:50:22.987Z,7.68
2024-04-25T02:52:51.757Z,7.62
2024-04-25T02:55:19.983Z,7.60
2024-04-25T02:57:47.447Z,7.59
2024-04-25T03:00:15.732Z,7.49
2024-04-25T03:02:43.369Z,7.57
2024-04-25T03:05:10.948Z,7.59
2024-04-25T03:07:39.254Z,7.47
2024-04-25T03:10:07.705Z,7.45
2024-04-25T03:12:35.197Z,7.51
2024-04-25T03:15:02.680Z,7.48
2024-04-25T03:17:31.040Z,7.26
2024-04-25T03:19:58.558Z,7.15
2024-04-25T03:22:25.991Z,7.18
2024-04-25T03:24:53.718Z,7.19
2024-04-25T03:27:21.132Z,7.09
2024-04-25T03:29:48.503Z,7.20
2024-04-25T03:32:16.003Z,7.27
2024-04-25T03:34:43.443Z,7.27
2024-04-25T03:37:11.017Z,7.13
2024-04-25T03:39:38.609Z,7.01
2024-04-25T03:42:07.795Z,6.93
2024-04-25T03:44:35.402Z,7.12
2024-04-25T03:47:02.972Z,7.08
2024-04-25T03:49:30.557Z,7.11
2024-04-25T03:51:58.187Z,7.12
2024-04-25T03:54:27.558Z,7.15
2024-04-25T03:56:55.045Z,7.18
2024-04-25T03:59:23.020Z,7.23
2024-04-25T04:01:50.538Z,7.23
2024-04-25T04:04:18.017Z,7.13
2024-04-25T04:06:45.480Z,7.04
2024-04-25T04:09:13.049Z,7.06
2024-04-25T04:11:41.682Z,7.07
2024-04-25T04:14:09.314Z,7.03
2024-04-25T04:16:36.721Z,7.09
2024-04-25T04:19:04.227Z,7.14
2024-04-25T04:21:31.654Z,7.14
2024-04-25T04:23:59.153Z,7.16
2024-04-25T04:26:26.675Z,7.19
2024-04-25T04:28:54.288Z,7.17
2024-04-25T04:31:22.378Z,7.11
2024-04-25T04:33:49.989Z,7.07
2024-04-25T04:36:17.518Z,6.97
2024-04-25T04:38:44.991Z,6.87
2024-04-25T04:41:12.842Z,6.87
2024-04-25T04:43:41.017Z,6.86
2024-04-25T04:46:10.009Z,6.84
2024-04-25T04:48:37.990Z,6.75
2024-04-25T04:51:05.740Z,6.70
2024-04-25T04:53:33.327Z,6.70
2024-04-25T04:56:00.824Z,6.81
2024-04-25T04:58:28.216Z,6.83
2024-04-25T05:00:55.756Z,6.88
2024-04-25T05:03:23.357Z,6.89
2024-04-25T05:05:50.768Z,6.95
2024-04-25T05:08:18.582Z,6.93
2024-04-25T05:10:46.109Z,6.92
2024-04-25T05:13:13.817Z,6.98
2024-04-25T05:15:41.896Z,7.00
2024-04-25T05:18:09.440Z,7.08
2024-04-25T05:20:36.994Z,7.12
2024-04-25T05:23:04.882Z,7.14
2024-04-25T05:25:32.379Z,7.20
2024-04-25T05:27:59.796Z,7.32
2024-04-25T05:30:28.230Z,7.45
2024-04-25T05:32:56.242Z,7.45
2024-04-25T05:35:23.952Z,7.46
2024-04-25T05:37:51.427Z,7.41
2024-04-25T05:40:18.907Z,7.45
2024-04-25T05:42:47.027Z,7.19
2024-04-25T05:45:14.503Z,7.17
2024-04-25T05:47:41.995Z,7.23
2024-04-25T05:50:09.963Z,7.17
2024-04-25T05:52:38.335Z,7.13
2024-04-25T05:55:08.627Z,7.24
2024-04-25T05:57:36.089Z,7.35
2024-04-25T06:00:03.932Z,7.31
2024-04-25T06:02:31.419Z,7.33
2024-04-25T06:04:59.795Z,7.34
2024-04-25T06:07:27.228Z,7.37
2024-04-25T06:09:55.400Z,7.50
2024-04-25T06:12:23.164Z,7.53
2024-04-25T06:14:50.691Z,7.64
2024-04-25T06:17:18.363Z,7.62
2024-04-25T06:19:48.971Z,7.74
2024-04-25T06:22:16.474Z,7.78
2024-04-25T06:24:44.094Z,7.95
2024-04-25T06:27:11.506Z,7.91
2024-04-25T06:29:38.941Z,8.12
2024-04-25T06:32:06.624Z,8.28
2024-04-25T06:34:34.573Z,8.12
2024-04-25T06:37:04.591Z,8.15
2024-04-25T06:39:32.015Z,8.36
2024-04-25T06:41:59.868Z,8.45
2024-04-25T06:44:32.244Z,8.44
2024-04-25T06:47:05.093Z,8.42
2024-04-25T06:49:32.635Z,8.54
2024-04-25T06:52:00.813Z,8.48
2024-04-25T06:54:30.230Z,8.62
2024-04-25T06:56:58.101Z,8.75
2024-04-25T06:59:25.634Z,8.73
2024-04-25T07:01:55.465Z,8.63
2024-04-25T07:04:23.004Z,8.77
2024-04-25T07:06:50.500Z,8.95
2024-04-25T07:09:17.911Z,8.92
2024-04-25T07:11:45.341Z,8.90
2024-04-25T07:14:12.844Z,8.94
2024-04-25T07:16:40.277Z,9.07
2024-04-25T07:19:07.717Z,9.24
2024-04-25T07:21:35.243Z,9.29
2024-04-25T07:24:04.479Z,9.25
2024-04-25T07:26:32.102Z,9.31
2024-04-25T07:29:02.655Z,9.32
2024-04-25T07:31:30.165Z,9.46
2024-04-25T07:33:57.828Z,9.62
2024-04-25T07:36:25.408Z,9.62
2024-04-25T07:38:53.099Z,9.62
2024-04-25T07:41:21.068Z,9.34
2024-04-25T07:43:48.697Z,9.52
2024-04-25T07:46:16.688Z,9.64
2024-04-25T07:48:45.991Z,9.70
2024-04-25T07:51:13.886Z,9.81
2024-04-25T07:53:41.400Z,9.88
2024-04-25T07:56:09.125Z,9.79
2024-04-25T07:58:37.046Z,9.68
2024-04-25T08:01:04.825Z,9.66
2024-04-25T08:03:32.413Z,9.39
2024-04-25T08:06:00.065Z,9.27
2024-04-25T08:08:28.064Z,9.43
2024-04-25T08:10:55.588Z,9.69
2024-04-25T08:13:23.063Z,9.81
2024-04-25T08:15:50.527Z,9.94
2024-04-25T08:18:18.230Z,9.75
2024-04-25T08:20:45.738Z,9.75
2024-04-25T08:23:13.705Z,9.90
2024-04-25T08:25:41.211Z,9.85
2024-04-25T08:28:12.207Z,9.86
2024-04-25T08:30:39.930Z,10.00
2024-04-25T08:33:09.711Z,10.07
2024-04-25T08:35:37.312Z,10.09
2024-04-25T08:38:04.983Z,10.09
2024-04-25T08:40:35.433Z,10.15
2024-04-25T08:43:06.454Z,10.26
2024-04-25T08:45:34.003Z,10.15
2024-04-25T08:48:03.236Z,10.22
2024-04-25T08:50:31.068Z,10.35
2024-04-25T08:53:02.636Z,10.44
2024-04-25T08:55:30.581Z,10.36
2024-04-25T08:57:58.120Z,10.45
2024-04-25T09:00:25.550Z,10.19
2024-04-25T09:02:54.102Z,10.23
2024-04-25T09:05:24.602Z,10.34
2024-04-25T09:07:52.397Z,10.32
2024-04-25T09:10:20.086Z,10.26
2024-04-25T09:12:47.633Z,10.31
2024-04-25T09:15:15.378Z,10.13
2024-04-25T09:17:42.887Z,10.11
2024-04-25T09:20:11.388Z,10.22
2024-04-25T09:22:39.544Z,10.11
2024-04-25T09:25:09.862Z,10.16
2024-04-25T09:27:37.764Z,10.15
2024-04-25T09:30:07.212Z,10.12
2024-04-25T09:32:34.654Z,10.08
2024-04-25T09:35:04.962Z,10.24
2024-04-25T09:37:33.634Z,10.39
2024-04-25T09:40:05.936Z,10.39
2024-04-25T09:42:36.697Z,10.31
2024-04-25T09:45:14.135Z,10.48
2024-04-25T09:47:49.630Z,10.51
2024-04-25T09:50:29.281Z,10.63
2024-04-25T09:53:05.513Z,10.70
2024-04-25T09:55:41.590Z,10.70
2024-04-25T09:58:16.747Z,10.85
2024-04-25T10:00:44.956Z,10.96
2024-04-25T10:03:13.543Z,10.93
2024-04-25T10:05:41.355Z,10.92
2024-04-25T10:08:09.370Z,11.00
2024-04-25T10:10:37.083Z,11.00
2024-04-25T10:13:04.774Z,11.04
2024-04-25T10:15:33.208Z,11.10
2024-04-25T10:18:00.883Z,11.04
2024-04-25T10:20:28.610Z,11.16
2024-04-25T10:23:00.635Z,11.28
2024-04-25T10:25:29.072Z,11.45
2024-04-25T10:28:01.709Z,11.57
2024-04-25T10:30:30.070Z,11.75
2024-04-25T10:32:58.022Z,11.78
2024-04-25T10:35:27.237Z,11.81
2024-04-25T10:37:54.774Z,11.81
2024-04-25T10:40:22.241Z,11.79
2024-04-25T10:43:05.069Z,11.63
2024-04-25T10:45:35.206Z,11.73
2024-04-25T10:48:02.938Z,11.87
2024-04-25T10:50:31.376Z,11.99
2024-04-25T10:53:01.199Z,12.06
2024-04-25T10:55:28.936Z,12.22
2024-04-25T10:57:56.881Z,12.26
2024-04-25T11:00:25.303Z,12.30
2024-04-25T11:02:53.134Z,12.40
2024-04-25T11:05:20.734Z,12.44
2024-04-25T11:07:49.071Z,12.39
2024-04-25T11:10:17.675Z,12.24
2024-04-25T11:12:46.222Z,12.16
2024-04-25T11:15:19.037Z,12.32
2024-04-25T11:17:56.655Z,12.61
2024-04-25T11:20:33.268Z,12.78
2024-04-25T11:23:22.405Z,12.89
2024-04-25T11:25:52.144Z,12.99
2024-04-25T11:28:20.424Z,12.87
2024-04-25T11:30:48.292Z,12.99
2024-04-25T11:33:24.848Z,13.02
2024-04-25T11:35:52.486Z,13.23
2024-04-25T11:38:20.577Z,13.43
2024-04-25T11:40:50.709Z,13.36
2024-04-25T11:43:19.992Z,13.53
2024-04-25T11:45:48.722Z,13.56
2024-04-25T11:48:20.114Z,13.26
2024-04-25T11:50:48.106Z,13.16
2024-04-25T11:53:16.013Z,13.23
2024-04-25T11:55:43.721Z,13.38
2024-04-25T11:58:11.361Z,13.51
2024-04-25T12:00:39.863Z,13.71
2024-04-25T12:03:07.879Z,13.88
2024-04-25T12:05:35.494Z,14.09
2024-04-25T12:08:06.895Z,14.30
2024-04-25T12:10:34.791Z,14.42
2024-04-25T12:13:03.052Z,14.47
2024-04-25T12:15:30.589Z,14.46
2024-04-25T12:17:58.133Z,14.41
2024-04-25T12:20:26.433Z,14.40
2024-04-25T12:22:55.678Z,14.38
2024-04-25T12:25:23.107Z,14.33
2024-04-25T12:27:51.121Z,14.37
2024-04-25T12:30:18.639Z,14.38
2024-04-25T12:32:46.215Z,14.35
2024-04-25T12:35:14.187Z,14.40
2024-04-25T12:37:41.763Z,14.48
2024-04-25T12:40:10.264Z,14.49
2024-04-25T12:42:37.711Z,14.56
2024-04-25T12:45:05.672Z,14.62
2024-04-25T12:47:33.230Z,14.78
2024-04-25T12:50:01.589Z,14.82
2024-04-25T12:52:29.436Z,14.60
2024-04-25T12:54:56.911Z,14.54
2024-04-25T12:57:25.283Z,14.48
2024-04-25T12:59:53.411Z,14.51
2024-04-25T13:02:24.084Z,14.53
2024-04-25T13:04:51.626Z,14.50
2024-04-25T13:07:19.053Z,14.72
2024-04-25T13:09:46.457Z,14.90
2024-04-25T13:12:13.972Z,14.87
2024-04-25T13:14:41.474Z,14.89
2024-04-25T13:17:09.135Z,14.85
2024-04-25T13:19:36.587Z,14.86
2024-04-25T13:22:06.497Z,14.95
2024-04-25T13:24:34.231Z,15.09
2024-04-25T13:27:03.492Z,15.11
2024-04-25T13:29:31.284Z,15.00
2024-04-25T13:31:58.802Z,14.99
2024-04-25T13:34:26.306Z,15.03
2024-04-25T13:36:56.982Z,15.02
2024-04-25T13:39:24.552Z,14.96
2024-04-25T13:41:52.194Z,14.94
2024-04-25T13:44:19.808Z,14.94
2024-04-25T13:46:47.288Z,14.88
2024-04-25T13:49:15.009Z,14.66
2024-04-25T13:51:42.553Z,14.71
2024-04-25T13:54:10.054Z,14.58
2024-04-25T13:56:37.623Z,14.53
2024-04-25T13:59:05.210Z,14.50
2024-04-25T14:01:32.823Z,14.52
2024-04-25T14:04:00.428Z,14.39
2024-04-25T14:06:27.903Z,14.28
2024-04-25T14:08:55.495Z,14.35
2024-04-25T14:11:23.015Z,14.42
2024-04-25T14:13:51.829Z,14.37
2024-04-25T14:16:19.350Z,14.46
2024-04-25T14:18:47.014Z,14.50
2024-04-25T14:21:18.742Z,14.57
2024-04-25T14:23:46.387Z,14.35
2024-04-25T14:26:32.917Z,14.35
2024-04-25T14:29:00.430Z,14.09
2024-04-25T14:31:27.932Z,14.05
2024-04-25T14:33:55.617Z,14.06
2024-04-25T14:36:23.185Z,14.15
2024-04-25T14:38:50.808Z,14.23
2024-04-25T14:41:19.539Z,14.44
2024-04-25T14:43:52.030Z,14.37
2024-04-25T14:46:26.726Z,14.34
2024-04-25T14:48:54.358Z,14.31
2024-04-25T14:51:21.968Z,14.15
2024-04-25T14:53:49.509Z,14.22
2024-04-25T14:56:17.113Z,14.17
2024-04-25T14:58:44.609Z,14.17
2024-04-25T15:01:19.593Z,14.12
2024-04-25T15:03:48.067Z,13.95
2024-04-25T15:06:15.634Z,13.84
2024-04-25T15:08:43.122Z,13.54
2024-04-25T15:11:14.777Z,13.53
2024-04-25T15:13:43.886Z,13.28
2024-04-25T15:16:11.905Z,12.95
2024-04-25T15:18:42.971Z,12.91
2024-04-25T15:21:11.662Z,12.82
2024-04-25T15:23:40.398Z,12.62
2024-04-25T15:26:07.915Z,12.46
2024-04-25T15:28:35.981Z,12.34
2024-04-25T15:31:03.437Z,12.25
2024-04-25T15:33:30.998Z,12.06
2024-04-25T15:35:58.760Z,11.99
2024-04-25T15:38:26.270Z,11.99
2024-04-25T15:40:53.722Z,11.99
2024-04-25T15:43:21.156Z,11.91
2024-04-25T15:45:48.563Z,11.87
2024-04-25T15:48:16.275Z,11.78
2024-04-25T15:50:43.981Z,11.72
2024-04-25T15:53:11.446Z,11.72
2024-04-25T15:55:38.928Z,11.51
2024-04-25T15:58:06.383Z,11.68
2024-04-25T16:00:33.790Z,11.92
2024-04-25T16:03:04.051Z,12.10
2024-04-25T16:05:31.592Z,12.11
2024-04-25T16:07:59.947Z,12.16
2024-04-25T16:10:27.394Z,12.26
2024-04-25T16:12:54.841Z,12.30
2024-04-25T16:15:22.446Z,12.59
2024-04-25T16:17:50.124Z,12.76
2024-04-25T16:20:17.659Z,13.11
2024-04-25T16:22:45.158Z,13.23
2024-04-25T16:25:12.775Z,13.22
2024-04-25T16:27:40.228Z,13.25
2024-04-25T16:30:08.461Z,13.11
2024-04-25T16:32:36.229Z,13.16
2024-04-25T16:35:04.194Z,13.21
2024-04-25T16:37:31.810Z,13.08
2024-04-25T16:40:00.779Z,12.96
2024-04-25T16:42:28.307Z,13.10
2024-04-25T16:44:56.320Z,13.26
2024-04-25T16:47:24.011Z,13.71
2024-04-25T16:49:51.638Z,14.47
2024-04-25T16:52:19.062Z,15.59
2024-04-25T16:54:46.542Z,16.35
2024-04-25T16:57:14.013Z,16.09
2024-04-25T16:59:42.801Z,14.86
2024-04-25T17:02:10.841Z,14.30
2024-04-25T17:04:40.405Z,14.00
2024-04-25T17:07:09.462Z,13.74
2024-04-25T17:09:38.186Z,13.59
2024-04-25T17:12:06.193Z,13.49
2024-04-25T17:14:34.513Z,13.34
2024-04-25T17:17:02.981Z,13.20
2024-04-25T17:19:31.808Z,13.16
2024-04-25T17:22:05.695Z,13.02
2024-04-25T17:24:33.155Z,12.76
2024-04-25T17:27:00.646Z,12.50
2024-04-25T17:29:28.925Z,12.47
2024-04-25T17:31:56.623Z,12.33
2024-04-25T17:34:24.133Z,12.13
2024-04-25T17:36:51.587Z,12.08
2024-04-25T17:39:19.124Z,11.97
2024-04-25T17:41:46.726Z,11.88
2024-04-25T17:44:14.248Z,11.80
2024-04-25T17:46:41.651Z,11.69
2024-04-25T17:49:09.269Z,11.71
2024-04-25T17:51:42.135Z,11.72
2024-04-25T17:54:13.239Z,11.71
2024-04-25T17:56:41.009Z,11.66
2024-04-25T17:59:08.555Z,11.59
2024-04-25T18:01:36.196Z,11.54
2024-04-25T18:04:03.657Z,11.49
2024-04-25T18:06:31.066Z,11.44
2024-04-25T18:08:58.532Z,11.38
2024-04-25T18:11:26.036Z,11.30
2024-04-25T18:13:53.535Z,11.26
2024-04-25T18:16:21.518Z,11.19
2024-04-25T18:18:50.006Z,11.16
2024-04-25T18:21:17.614Z,11.08
2024-04-25T18:23:45.177Z,11.03
2024-04-25T18:26:12.647Z,10.99
2024-04-25T18:28:40.051Z,10.94
2024-04-25T18:31:07.544Z,10.90
2024-04-25T18:33:35.073Z,10.87
2024-04-25T18:36:02.640Z,10.83
2024-04-25T18:38:30.120Z,10.84
2024-04-25T18:40:57.642Z,10.80
2024-04-25T18:43:25.121Z,10.77
2024-04-25T18:45:52.590Z,10.73
2024-04-25T18:48:20.140Z,10.71
2024-04-25T18:50:47.636Z,10.68
2024-04-25T18:53:15.544Z,10.65
2024-04-25T18:55:42.978Z,10.63
2024-04-25T18:58:10.397Z,10.58
2024-04-25T19:00:37.858Z,10.52
2024-04-25T19:03:06.269Z,10.49
2024-04-25T19:05:34.351Z,10.40
2024-04-25T19:08:02.320Z,10.40
2024-04-25T19:10:29.786Z,10.36
2024-04-25T19:12:57.157Z,10.34
2024-04-25T19:15:26.196Z,10.34
2024-04-25T19:17:53.738Z,10.30
2024-04-25T19:20:21.385Z,10.31
2024-04-25T19:22:48.840Z,10.35
2024-04-25T19:25:16.339Z,10.40
2024-04-25T19:27:43.763Z,10.43
2024-04-25T19:30:14.103Z,10.46
2024-04-25T19:32:41.865Z,10.42
2024-04-25T19:35:09.606Z,10.45
2024-04-25T19:37:37.252Z,10.51
2024-04-25T19:40:05.252Z,10.53
2024-04-25T19:42:32.619Z,10.59
2024-04-25T19:45:00.114Z,10.60
2024-04-25T19:47:28.683Z,10.63
2024-04-25T19:49:56.760Z,10.67
2024-04-25T19:52:24.582Z,10.56
2024-04-25T19:54:56.601Z,10.41
2024-04-25T19:57:24.883Z,10.38
2024-04-25T19:59:53.242Z,10.30
2024-04-25T20:02:23.396Z,10.21
2024-04-25T20:04:50.964Z,10.25
2024-04-25T20:07:18.741Z,10.19
2024-04-25T20:09:46.107Z,10.25
2024-04-25T20:12:13.647Z,10.29
2024-04-25T20:14:41.078Z,10.30
2024-04-25T20:17:12.869Z,10.30
2024-04-25T20:19:59.010Z,10.33
2024-04-25T20:22:26.546Z,10.31
2024-04-25T20:24:54.842Z,10.31
2024-04-25T20:27:22.401Z,10.28
2024-04-25T20:29:51.116Z,10.32
2024-04-25T20:32:18.721Z,10.27
2024-04-25T20:34:46.213Z,10.27
2024-04-25T20:37:13.760Z,10.28
2024-04-25T20:39:41.158Z,10.27
2024-04-25T20:42:10.573Z,10.32
2024-04-25T20:44:38.203Z,10.39
2024-04-25T20:47:05.864Z,10.43
2024-04-25T20:49:33.373Z,10.40
2024-04-25T20:52:00.790Z,10.42
2024-04-25T20:54:28.350Z,10.33
2024-04-25T20:56:55.936Z,10.35
2024-04-25T20:59:23.371Z,10.39
2024-04-25T21:01:50.839Z,10.37
2024-04-25T21:04:18.333Z,10.36
2024-04-25T21:06:48.189Z,10.31
2024-04-25T21:09:18.668Z,10.32
2024-04-25T21:11:46.984Z,10.30
2024-04-25T21:14:14.438Z,10.11
2024-04-25T21:16:43.503Z,10.11
2024-04-25T21:19:11.528Z,10.08
2024-04-25T21:21:41.152Z,10.07
2024-04-25T21:24:08.692Z,10.05
2024-04-25T21:26:36.173Z,10.05
2024-04-25T21:29:03.617Z,10.02
2024-04-25T21:31:31.087Z,9.99
2024-04-25T21:33:58.732Z,9.96
2024-04-25T21:36:27.527Z,9.95
2024-04-25T21:38:55.153Z,9.92
2024-04-25T21:41:22.714Z,9.93
2024-04-25T21:43:50.255Z,9.90
2024-04-25T21:46:17.691Z,9.82
2024-04-25T21:48:49.011Z,9.82
2024-04-25T21:51:18.752Z,9.76
2024-04-25T21:53:46.321Z,9.72
2024-04-25T21:56:13.721Z,9.65
2024-04-25T21:58:41.186Z,9.62
2024-04-25T22:01:08.751Z,9.59
2024-04-25T22:03:36.328Z,9.54
2024-04-25T22:06:03.970Z,9.51
2024-04-25T22:08:31.418Z,9.47
2024-04-25T22:10:58.796Z,9.43
2024-04-25T22:13:26.292Z,9.42
2024-04-25T22:15:53.654Z,9.36
2024-04-25T22:18:21.149Z,9.33
2024-04-25T22:20:48.562Z,9.26
2024-04-25T22:23:16.056Z,9.21
2024-04-25T22:25:43.437Z,9.19
2024-04-25T22:28:11.841Z,9.18
2024-04-25T22:30:39.226Z,9.12
2024-04-25T22:33:06.755Z,9.11
2024-04-25T22:35:34.265Z,9.06
2024-04-25T22:38:01.657Z,9.07
2024-04-25T22:40:29.193Z,9.00
2024-04-25T22:42:56.722Z,8.94
2024-04-25T22:45:28.589Z,8.84
2024-04-25T22:47:59.473Z,8.79
2024-04-25T22:50:27.057Z,8.74
2024-04-25T22:52:54.416Z,8.71
2024-04-25T22:55:21.801Z,8.67
2024-04-25T22:57:49.185Z,8.65
2024-04-25T23:00:17.050Z,8.62
2024-04-25T23:02:44.943Z,8.57
2024-04-25T23:05:12.564Z,8.53
2024-04-25T23:07:39.946Z,8.52
2024-04-25T23:10:08.344Z,8.47
2024-04-25T23:12:35.844Z,8.46
2024-04-25T23:15:04.611Z,8.45
2024-04-25T23:17:32.072Z,8.45
2024-04-25T23:19:59.565Z,8.44
2024-04-25T23:22:27.055Z,8.45
2024-04-25T23:24:54.558Z,8.45
2024-04-25T23:27:22.875Z,8.43
2024-04-25T23:29:50.354Z,8.37
2024-04-25T23:32:17.952Z,8.31
2024-04-25T23:34:45.368Z,8.30
2024-04-25T23:37:12.852Z,8.27
2024-04-25T23:39:41.192Z,8.25
2024-04-25T23:42:09.522Z,8.25
2024-04-25T23:44:38.312Z,8.22
2024-04-25T23:47:07.292Z,8.23
2024-04-25T23:49:34.797Z,8.18
2024-04-25T23:52:02.208Z,8.13
2024-04-25T23:54:29.597Z,8.08
2024-04-25T23:56:57.072Z,8.04
2024-04-25T23:59:24.467Z,8.06
